sensor_id;sensor_type;location;lat;lon;timestamp;P1;durP1;ratioP1;P2;durP2;ratioP2
9892;SDS011;4985;49.092;8.542;2023-01-05T00:00:46;0.53;;;0.53;;
9892;SDS011;4985;49.092;8.542;2023-01-05T00:03:14;0.80;;;0.80;;
9892;SDS011;4985;49.092;8.542;2023-01-05T00:05:41;0.60;;;0.60;;
9892;SDS011;4985;49.092;8.542;2023-01-05T00:08:07;0.70;;;0.70;;
9892;SDS011;4985;49.092;8.542;2023-01-05T00:10:35;0.80;;;0.80;;
9892;SDS011;4985;49.092;8.542;2023-01-05T00:13:28;0.97;;;0.63;;
9892;SDS011;4985;49.092;8.542;2023-01-05T00:16:27;0.70;;;0.70;;
9892;SDS011;4985;49.092;8.542;2023-01-05T00:19:12;0.77;;;0.77;;
9892;SDS011;4985;49.092;8.542;2023-01-05T00:21:56;0.70;;;0.70;;
9892;SDS011;4985;49.092;8.542;2023-01-05T00:24:40;0.60;;;0.60;;
9892;SDS011;4985;49.092;8.542;2023-01-05T00:27:07;0.67;;;0.67;;
9892;SDS011;4985;49.092;8.542;2023-01-05T00:29:33;1.17;;;0.80;;
9892;SDS011;4985;49.092;8.542;2023-01-05T00:32:00;0.70;;;0.70;;
9892;SDS011;4985;49.092;8.542;2023-01-05T00:34:28;0.80;;;0.80;;
9892;SDS011;4985;49.092;8.542;2023-01-05T00:36:54;0.90;;;0.73;;
9892;SDS011;4985;49.092;8.542;2023-01-05T00:39:21;0.90;;;0.90;;
9892;SDS011;4985;49.092;8.542;2023-01-05T00:41:48;0.70;;;0.70;;
9892;SDS011;4985;49.092;8.542;2023-01-05T00:44:14;0.60;;;0.60;;
9892;SDS011;4985;49.092;8.542;2023-01-05T00:46:41;0.80;;;0.80;;
9892;SDS011;4985;49.092;8.542;2023-01-05T00:49:07;0.60;;;0.60;;
9892;SDS011;4985;49.092;8.542;2023-01-05T00:51:35;1.43;;;0.63;;
9892;SDS011;4985;49.092;8.542;2023-01-05T00:54:02;0.73;;;0.73;;
9892;SDS011;4985;49.092;8.542;2023-01-05T00:56:28;0.70;;;0.70;;
9892;SDS011;4985;49.092;8.542;2023-01-05T00:58:55;0.60;;;0.60;;
9892;SDS011;4985;49.092;8.542;2023-01-05T01:01:21;0.70;;;0.70;;
9892;SDS011;4985;49.092;8.542;2023-01-05T01:03:48;0.90;;;0.70;;
9892;SDS011;4985;49.092;8.542;2023-01-05T01:06:15;0.60;;;0.60;;
9892;SDS011;4985;49.092;8.542;2023-01-05T01:08:43;1.60;;;0.70;;
9892;SDS011;4985;49.092;8.542;2023-01-05T01:11:10;0.60;;;0.60;;
9892;SDS011;4985;49.092;8.542;2023-01-05T01:13:36;0.83;;;0.70;;
9892;SDS011;4985;49.092;8.542;2023-01-05T01:16:06;1.40;;;0.60;;
9892;SDS011;4985;49.092;8.542;2023-01-05T01:18:33;0.60;;;0.60;;
9892;SDS011;4985;49.092;8.542;2023-01-05T01:21:00;0.70;;;0.70;;
9892;SDS011;4985;49.092;8.542;2023-01-05T01:23:27;0.60;;;0.60;;
9892;SDS011;4985;49.092;8.542;2023-01-05T01:25:55;0.60;;;0.60;;
9892;SDS011;4985;49.092;8.542;2023-01-05T01:28:22;0.50;;;0.50;;
9892;SDS011;4985;49.092;8.542;2023-01-05T01:30:48;0.60;;;0.60;;
9892;SDS011;4985;49.092;8.542;2023-01-05T01:33:15;0.70;;;0.70;;
9892;SDS011;4985;49.092;8.542;2023-01-05T01:35:42;0.60;;;0.60;;
9892;SDS011;4985;49.092;8.542;2023-01-05T01:38:08;0.50;;;0.50;;
9892;SDS011;4985;49.092;8.542;2023-01-05T01:40:37;0.60;;;0.60;;
9892;SDS011;4985;49.092;8.542;2023-01-05T01:43:09;0.60;;;0.60;;
9892;SDS011;4985;49.092;8.542;2023-01-05T01:45:37;0.70;;;0.70;;
9892;SDS011;4985;49.092;8.542;2023-01-05T01:48:04;0.60;;;0.60;;
9892;SDS011;4985;49.092;8.542;2023-01-05T01:50:33;0.60;;;0.60;;
9892;SDS011;4985;49.092;8.542;2023-01-05T01:53:04;0.70;;;0.70;;
9892;SDS011;4985;49.092;8.542;2023-01-05T01:55:34;1.57;;;0.70;;
9892;SDS011;4985;49.092;8.542;2023-01-05T01:58:02;0.57;;;0.57;;
9892;SDS011;4985;49.092;8.542;2023-01-05T02:00:36;0.60;;;0.60;;
9892;SDS011;4985;49.092;8.542;2023-01-05T02:03:04;0.70;;;0.70;;
9892;SDS011;4985;49.092;8.542;2023-01-05T02:05:30;0.60;;;0.60;;
9892;SDS011;4985;49.092;8.542;2023-01-05T02:08:01;0.50;;;0.50;;
9892;SDS011;4985;49.092;8.542;2023-01-05T02:10:33;0.50;;;0.50;;
9892;SDS011;4985;49.092;8.542;2023-01-05T02:13:10;0.67;;;0.67;;
9892;SDS011;4985;49.092;8.542;2023-01-05T02:15:49;0.50;;;0.50;;
9892;SDS011;4985;49.092;8.542;2023-01-05T02:18:31;0.50;;;0.50;;
9892;SDS011;4985;49.092;8.542;2023-01-05T02:21:20;0.60;;;0.60;;
9892;SDS011;4985;49.092;8.542;2023-01-05T02:29:57;0.57;;;0.57;;
9892;SDS011;4985;49.092;8.542;2023-01-05T02:32:41;0.60;;;0.60;;
9892;SDS011;4985;49.092;8.542;2023-01-05T02:35:17;0.70;;;0.70;;
9892;SDS011;4985;49.092;8.542;2023-01-05T02:37:55;0.60;;;0.60;;
9892;SDS011;4985;49.092;8.542;2023-01-05T02:40:31;0.70;;;0.70;;
9892;SDS011;4985;49.092;8.542;2023-01-05T02:43:02;0.70;;;0.60;;
9892;SDS011;4985;49.092;8.542;2023-01-05T02:45:31;0.50;;;0.50;;
9892;SDS011;4985;49.092;8.542;2023-01-05T02:47:59;0.70;;;0.70;;
9892;SDS011;4985;49.092;8.542;2023-01-05T02:50:27;0.70;;;0.70;;
9892;SDS011;4985;49.092;8.542;2023-01-05T02:52:58;0.60;;;0.60;;
9892;SDS011;4985;49.092;8.542;2023-01-05T02:55:30;0.60;;;0.60;;
9892;SDS011;4985;49.092;8.542;2023-01-05T02:58:01;0.90;;;0.70;;
9892;SDS011;4985;49.092;8.542;2023-01-05T03:00:32;0.60;;;0.60;;
9892;SDS011;4985;49.092;8.542;2023-01-05T03:03:06;0.60;;;0.60;;
9892;SDS011;4985;49.092;8.542;2023-01-05T03:05:35;0.57;;;0.57;;
9892;SDS011;4985;49.092;8.542;2023-01-05T03:08:06;0.70;;;0.70;;
9892;SDS011;4985;49.092;8.542;2023-01-05T03:10:35;0.47;;;0.47;;
9892;SDS011;4985;49.092;8.542;2023-01-05T03:13:28;1.70;;;0.73;;
9892;SDS011;4985;49.092;8.542;2023-01-05T03:16:09;0.67;;;0.67;;
9892;SDS011;4985;49.092;8.542;2023-01-05T03:18:40;0.60;;;0.60;;
9892;SDS011;4985;49.092;8.542;2023-01-05T03:21:21;0.60;;;0.60;;
9892;SDS011;4985;49.092;8.542;2023-01-05T03:23:48;0.70;;;0.70;;
9892;SDS011;4985;49.092;8.542;2023-01-05T03:26:33;0.77;;;0.60;;
9892;SDS011;4985;49.092;8.542;2023-01-05T03:29:17;0.50;;;0.50;;
9892;SDS011;4985;49.092;8.542;2023-01-05T03:32:04;1.50;;;0.50;;
9892;SDS011;4985;49.092;8.542;2023-01-05T03:34:54;0.50;;;0.50;;
9892;SDS011;4985;49.092;8.542;2023-01-05T03:37:42;0.70;;;0.70;;
9892;SDS011;4985;49.092;8.542;2023-01-05T03:40:14;0.60;;;0.60;;
9892;SDS011;4985;49.092;8.542;2023-01-05T03:42:45;0.60;;;0.60;;
9892;SDS011;4985;49.092;8.542;2023-01-05T03:45:13;0.60;;;0.60;;
9892;SDS011;4985;49.092;8.542;2023-01-05T03:47:41;0.70;;;0.70;;
9892;SDS011;4985;49.092;8.542;2023-01-05T03:50:09;0.50;;;0.50;;
9892;SDS011;4985;49.092;8.542;2023-01-05T03:52:36;2.70;;;0.67;;
9892;SDS011;4985;49.092;8.542;2023-01-05T03:55:03;0.60;;;0.60;;
9892;SDS011;4985;49.092;8.542;2023-01-05T03:57:30;0.60;;;0.60;;
9892;SDS011;4985;49.092;8.542;2023-01-05T03:59:57;0.60;;;0.60;;
9892;SDS011;4985;49.092;8.542;2023-01-05T04:02:23;0.93;;;0.70;;
9892;SDS011;4985;49.092;8.542;2023-01-05T04:04:50;0.60;;;0.60;;
9892;SDS011;4985;49.092;8.542;2023-01-05T04:07:18;0.50;;;0.50;;
9892;SDS011;4985;49.092;8.542;2023-01-05T04:09:45;0.63;;;0.63;;
9892;SDS011;4985;49.092;8.542;2023-01-05T04:12:11;0.70;;;0.70;;
9892;SDS011;4985;49.092;8.542;2023-01-05T04:14:38;0.73;;;0.70;;
9892;SDS011;4985;49.092;8.542;2023-01-05T04:17:04;0.70;;;0.70;;
9892;SDS011;4985;49.092;8.542;2023-01-05T04:19:31;0.60;;;0.60;;
9892;SDS011;4985;49.092;8.542;2023-01-05T04:21:58;0.57;;;0.57;;
9892;SDS011;4985;49.092;8.542;2023-01-05T04:24:25;0.60;;;0.60;;
9892;SDS011;4985;49.092;8.542;2023-01-05T04:26:52;0.70;;;0.70;;
9892;SDS011;4985;49.092;8.542;2023-01-05T04:29:19;0.60;;;0.60;;
9892;SDS011;4985;49.092;8.542;2023-01-05T04:31:45;0.83;;;0.70;;
9892;SDS011;4985;49.092;8.542;2023-01-05T04:34:12;0.60;;;0.60;;
9892;SDS011;4985;49.092;8.542;2023-01-05T04:36:38;0.63;;;0.63;;
9892;SDS011;4985;49.092;8.542;2023-01-05T04:39:05;1.03;;;0.70;;
9892;SDS011;4985;49.092;8.542;2023-01-05T04:41:33;0.60;;;0.60;;
9892;SDS011;4985;49.092;8.542;2023-01-05T04:43:59;0.70;;;0.70;;
9892;SDS011;4985;49.092;8.542;2023-01-05T04:46:26;0.80;;;0.80;;
9892;SDS011;4985;49.092;8.542;2023-01-05T04:48:52;0.70;;;0.67;;
9892;SDS011;4985;49.092;8.542;2023-01-05T04:51:19;0.73;;;0.70;;
9892;SDS011;4985;49.092;8.542;2023-01-05T04:53:46;0.70;;;0.70;;
9892;SDS011;4985;49.092;8.542;2023-01-05T04:56:12;0.70;;;0.70;;
9892;SDS011;4985;49.092;8.542;2023-01-05T04:58:41;0.77;;;0.77;;
9892;SDS011;4985;49.092;8.542;2023-01-05T05:01:08;0.60;;;0.60;;
9892;SDS011;4985;49.092;8.542;2023-01-05T05:03:34;0.77;;;0.77;;
9892;SDS011;4985;49.092;8.542;2023-01-05T05:06:01;0.60;;;0.60;;
9892;SDS011;4985;49.092;8.542;2023-01-05T05:08:27;0.93;;;0.93;;
9892;SDS011;4985;49.092;8.542;2023-01-05T05:10:54;0.60;;;0.60;;
9892;SDS011;4985;49.092;8.542;2023-01-05T05:13:20;1.90;;;0.97;;
9892;SDS011;4985;49.092;8.542;2023-01-05T05:15:48;0.70;;;0.70;;
9892;SDS011;4985;49.092;8.542;2023-01-05T05:18:15;0.80;;;0.70;;
9892;SDS011;4985;49.092;8.542;2023-01-05T05:20:42;1.23;;;0.93;;
9892;SDS011;4985;49.092;8.542;2023-01-05T05:23:10;0.93;;;0.63;;
9892;SDS011;4985;49.092;8.542;2023-01-05T05:25:37;0.83;;;0.73;;
9892;SDS011;4985;49.092;8.542;2023-01-05T05:28:03;0.70;;;0.70;;
9892;SDS011;4985;49.092;8.542;2023-01-05T05:30:30;1.03;;;0.60;;
9892;SDS011;4985;49.092;8.542;2023-01-05T05:32:58;0.60;;;0.60;;
9892;SDS011;4985;49.092;8.542;2023-01-05T05:35:25;1.67;;;0.90;;
9892;SDS011;4985;49.092;8.542;2023-01-05T05:37:51;0.77;;;0.70;;
9892;SDS011;4985;49.092;8.542;2023-01-05T05:40:18;0.63;;;0.63;;
9892;SDS011;4985;49.092;8.542;2023-01-05T05:42:44;1.57;;;0.90;;
9892;SDS011;4985;49.092;8.542;2023-01-05T05:45:11;0.93;;;0.70;;
9892;SDS011;4985;49.092;8.542;2023-01-05T05:47:38;1.97;;;0.90;;
9892;SDS011;4985;49.092;8.542;2023-01-05T05:50:06;0.97;;;0.70;;
9892;SDS011;4985;49.092;8.542;2023-01-05T05:52:33;2.23;;;0.90;;
9892;SDS011;4985;49.092;8.542;2023-01-05T05:55:00;1.73;;;0.80;;
9892;SDS011;4985;49.092;8.542;2023-01-05T05:57:26;1.97;;;1.00;;
9892;SDS011;4985;49.092;8.542;2023-01-05T05:59:53;3.43;;;1.20;;
9892;SDS011;4985;49.092;8.542;2023-01-05T06:02:19;3.90;;;1.13;;
9892;SDS011;4985;49.092;8.542;2023-01-05T06:04:46;3.53;;;1.00;;
9892;SDS011;4985;49.092;8.542;2023-01-05T06:07:14;1.40;;;1.17;;
9892;SDS011;4985;49.092;8.542;2023-01-05T06:09:40;1.10;;;1.00;;
9892;SDS011;4985;49.092;8.542;2023-01-05T06:12:07;1.87;;;1.00;;
9892;SDS011;4985;49.092;8.542;2023-01-05T06:14:34;1.60;;;0.93;;
9892;SDS011;4985;49.092;8.542;2023-01-05T06:17:00;1.07;;;0.97;;
9892;SDS011;4985;49.092;8.542;2023-01-05T06:19:27;0.80;;;0.80;;
9892;SDS011;4985;49.092;8.542;2023-01-05T06:21:53;1.53;;;1.10;;
9892;SDS011;4985;49.092;8.542;2023-01-05T06:24:21;1.23;;;1.00;;
9892;SDS011;4985;49.092;8.542;2023-01-05T06:26:48;1.10;;;0.97;;
9892;SDS011;4985;49.092;8.542;2023-01-05T06:29:14;4.13;;;0.90;;
9892;SDS011;4985;49.092;8.542;2023-01-05T06:31:41;2.30;;;1.10;;
9892;SDS011;4985;49.092;8.542;2023-01-05T06:34:07;2.57;;;1.20;;
9892;SDS011;4985;49.092;8.542;2023-01-05T06:36:34;3.40;;;1.20;;
9892;SDS011;4985;49.092;8.542;2023-01-05T06:39:00;1.93;;;1.00;;
9892;SDS011;4985;49.092;8.542;2023-01-05T06:41:28;1.30;;;0.90;;
9892;SDS011;4985;49.092;8.542;2023-01-05T06:43:55;2.90;;;1.10;;
9892;SDS011;4985;49.092;8.542;2023-01-05T06:46:22;1.50;;;0.93;;
9892;SDS011;4985;49.092;8.542;2023-01-05T06:48:48;1.57;;;0.90;;
9892;SDS011;4985;49.092;8.542;2023-01-05T06:51:15;2.97;;;1.10;;
9892;SDS011;4985;49.092;8.542;2023-01-05T06:53:41;2.93;;;1.13;;
9892;SDS011;4985;49.092;8.542;2023-01-05T06:56:08;1.73;;;0.80;;
9892;SDS011;4985;49.092;8.542;2023-01-05T06:58:36;1.07;;;0.97;;
9892;SDS011;4985;49.092;8.542;2023-01-05T07:01:02;1.27;;;0.93;;
9892;SDS011;4985;49.092;8.542;2023-01-05T07:03:29;2.53;;;1.10;;
9892;SDS011;4985;49.092;8.542;2023-01-05T07:05:56;2.47;;;0.90;;
9892;SDS011;4985;49.092;8.542;2023-01-05T07:08:22;1.10;;;1.00;;
9892;SDS011;4985;49.092;8.542;2023-01-05T07:10:49;3.27;;;1.50;;
9892;SDS011;4985;49.092;8.542;2023-01-05T07:13:15;1.47;;;0.90;;
9892;SDS011;4985;49.092;8.542;2023-01-05T07:15:43;1.47;;;1.10;;
9892;SDS011;4985;49.092;8.542;2023-01-05T07:18:10;2.30;;;1.20;;
9892;SDS011;4985;49.092;8.542;2023-01-05T07:20:36;3.27;;;1.10;;
9892;SDS011;4985;49.092;8.542;2023-01-05T07:23:03;3.37;;;1.77;;
9892;SDS011;4985;49.092;8.542;2023-01-05T07:25:30;1.10;;;1.00;;
9892;SDS011;4985;49.092;8.542;2023-01-05T07:27:57;1.40;;;1.10;;
9892;SDS011;4985;49.092;8.542;2023-01-05T07:30:23;2.37;;;1.10;;
9892;SDS011;4985;49.092;8.542;2023-01-05T07:32:51;1.50;;;1.20;;
9892;SDS011;4985;49.092;8.542;2023-01-05T07:35:18;2.93;;;1.40;;
9892;SDS011;4985;49.092;8.542;2023-01-05T07:37:44;1.70;;;0.97;;
9892;SDS011;4985;49.092;8.542;2023-01-05T07:40:11;2.20;;;1.23;;
9892;SDS011;4985;49.092;8.542;2023-01-05T07:42:38;2.23;;;1.13;;
9892;SDS011;4985;49.092;8.542;2023-01-05T07:45:05;1.80;;;1.10;;
9892;SDS011;4985;49.092;8.542;2023-01-05T07:47:32;1.93;;;1.20;;
9892;SDS011;4985;49.092;8.542;2023-01-05T07:50:00;1.93;;;1.30;;
9892;SDS011;4985;49.092;8.542;2023-01-05T07:52:27;2.43;;;1.50;;
9892;SDS011;4985;49.092;8.542;2023-01-05T07:54:53;1.93;;;1.17;;
9892;SDS011;4985;49.092;8.542;2023-01-05T07:57:22;2.10;;;1.20;;
9892;SDS011;4985;49.092;8.542;2023-01-05T07:59:49;2.50;;;1.37;;
9892;SDS011;4985;49.092;8.542;2023-01-05T08:02:15;2.40;;;1.20;;
9892;SDS011;4985;49.092;8.542;2023-01-05T08:04:42;1.97;;;1.20;;
9892;SDS011;4985;49.092;8.542;2023-01-05T08:07:10;2.17;;;1.20;;
9892;SDS011;4985;49.092;8.542;2023-01-05T08:09:38;3.97;;;1.57;;
9892;SDS011;4985;49.092;8.542;2023-01-05T08:12:23;4.40;;;1.20;;
9892;SDS011;4985;49.092;8.542;2023-01-05T08:14:49;4.80;;;1.60;;
9892;SDS011;4985;49.092;8.542;2023-01-05T08:17:16;1.83;;;1.27;;
9892;SDS011;4985;49.092;8.542;2023-01-05T08:19:42;3.23;;;1.37;;
9892;SDS011;4985;49.092;8.542;2023-01-05T08:22:10;3.90;;;1.50;;
9892;SDS011;4985;49.092;8.542;2023-01-05T08:24:37;2.97;;;1.70;;
9892;SDS011;4985;49.092;8.542;2023-01-05T08:27:04;4.63;;;1.50;;
9892;SDS011;4985;49.092;8.542;2023-01-05T08:29:30;3.77;;;1.43;;
9892;SDS011;4985;49.092;8.542;2023-01-05T08:31:57;3.63;;;1.63;;
9892;SDS011;4985;49.092;8.542;2023-01-05T08:34:23;3.67;;;1.43;;
9892;SDS011;4985;49.092;8.542;2023-01-05T08:36:50;5.63;;;1.67;;
9892;SDS011;4985;49.092;8.542;2023-01-05T08:39:20;2.33;;;1.17;;
9892;SDS011;4985;49.092;8.542;2023-01-05T08:41:47;2.90;;;1.60;;
9892;SDS011;4985;49.092;8.542;2023-01-05T08:44:13;4.17;;;1.70;;
9892;SDS011;4985;49.092;8.542;2023-01-05T08:46:40;4.60;;;1.27;;
9892;SDS011;4985;49.092;8.542;2023-01-05T08:49:07;4.43;;;1.50;;
9892;SDS011;4985;49.092;8.542;2023-01-05T08:51:34;4.73;;;1.60;;
9892;SDS011;4985;49.092;8.542;2023-01-05T08:54:01;2.70;;;1.40;;
9892;SDS011;4985;49.092;8.542;2023-01-05T08:56:29;4.13;;;1.67;;
9892;SDS011;4985;49.092;8.542;2023-01-05T08:58:55;6.13;;;2.23;;
9892;SDS011;4985;49.092;8.542;2023-01-05T09:01:23;4.43;;;1.70;;
9892;SDS011;4985;49.092;8.542;2023-01-05T09:03:50;4.57;;;2.00;;
9892;SDS011;4985;49.092;8.542;2023-01-05T09:06:16;5.07;;;2.00;;
9892;SDS011;4985;49.092;8.542;2023-01-05T09:08:44;5.03;;;2.17;;
9892;SDS011;4985;49.092;8.542;2023-01-05T09:11:11;5.67;;;2.33;;
9892;SDS011;4985;49.092;8.542;2023-01-05T09:13:43;4.23;;;1.30;;
9892;SDS011;4985;49.092;8.542;2023-01-05T09:16:12;4.33;;;1.77;;
9892;SDS011;4985;49.092;8.542;2023-01-05T09:18:40;5.37;;;2.03;;
9892;SDS011;4985;49.092;8.542;2023-01-05T09:21:07;5.13;;;2.10;;
9892;SDS011;4985;49.092;8.542;2023-01-05T09:23:34;5.90;;;1.93;;
9892;SDS011;4985;49.092;8.542;2023-01-05T09:26:02;7.93;;;2.10;;
9892;SDS011;4985;49.092;8.542;2023-01-05T09:28:29;6.00;;;1.83;;
9892;SDS011;4985;49.092;8.542;2023-01-05T09:30:56;6.70;;;1.77;;
9892;SDS011;4985;49.092;8.542;2023-01-05T09:33:23;6.90;;;2.80;;
9892;SDS011;4985;49.092;8.542;2023-01-05T09:35:53;6.40;;;1.77;;
9892;SDS011;4985;49.092;8.542;2023-01-05T09:38:20;8.67;;;2.00;;
9892;SDS011;4985;49.092;8.542;2023-01-05T09:40:47;8.03;;;2.40;;
9892;SDS011;4985;49.092;8.542;2023-01-05T09:43:21;5.40;;;1.67;;
9892;SDS011;4985;49.092;8.542;2023-01-05T09:45:50;5.40;;;2.13;;
9892;SDS011;4985;49.092;8.542;2023-01-05T09:48:18;7.67;;;2.17;;
9892;SDS011;4985;49.092;8.542;2023-01-05T09:50:46;10.50;;;2.77;;
9892;SDS011;4985;49.092;8.542;2023-01-05T09:53:17;6.07;;;2.00;;
9892;SDS011;4985;49.092;8.542;2023-01-05T09:55:48;7.00;;;2.17;;
9892;SDS011;4985;49.092;8.542;2023-01-05T09:58:17;6.53;;;2.17;;
9892;SDS011;4985;49.092;8.542;2023-01-05T10:00:48;7.10;;;2.87;;
9892;SDS011;4985;49.092;8.542;2023-01-05T10:03:27;7.60;;;2.50;;
9892;SDS011;4985;49.092;8.542;2023-01-05T10:05:56;10.97;;;2.77;;
9892;SDS011;4985;49.092;8.542;2023-01-05T10:08:26;7.73;;;2.17;;
9892;SDS011;4985;49.092;8.542;2023-01-05T10:11:00;8.80;;;2.80;;
9892;SDS011;4985;49.092;8.542;2023-01-05T10:13:50;6.37;;;2.10;;
9892;SDS011;4985;49.092;8.542;2023-01-05T10:16:21;9.33;;;2.53;;
9892;SDS011;4985;49.092;8.542;2023-01-05T10:18:49;7.10;;;2.23;;
9892;SDS011;4985;49.092;8.542;2023-01-05T10:21:19;7.37;;;2.30;;
9892;SDS011;4985;49.092;8.542;2023-01-05T10:24:00;7.47;;;2.50;;
9892;SDS011;4985;49.092;8.542;2023-01-05T10:26:42;7.30;;;2.83;;
9892;SDS011;4985;49.092;8.542;2023-01-05T10:29:15;11.07;;;2.97;;
9892;SDS011;4985;49.092;8.542;2023-01-05T10:31:46;7.20;;;2.40;;
9892;SDS011;4985;49.092;8.542;2023-01-05T10:34:21;12.17;;;2.80;;
9892;SDS011;4985;49.092;8.542;2023-01-05T10:36:58;6.77;;;2.73;;
9892;SDS011;4985;49.092;8.542;2023-01-05T10:39:40;7.93;;;2.23;;
9892;SDS011;4985;49.092;8.542;2023-01-05T10:42:30;9.03;;;2.40;;
9892;SDS011;4985;49.092;8.542;2023-01-05T10:45:07;9.73;;;2.40;;
9892;SDS011;4985;49.092;8.542;2023-01-05T10:47:36;9.07;;;2.33;;
9892;SDS011;4985;49.092;8.542;2023-01-05T10:50:26;10.03;;;2.47;;
9892;SDS011;4985;49.092;8.542;2023-01-05T10:53:02;8.70;;;2.77;;
9892;SDS011;4985;49.092;8.542;2023-01-05T10:55:36;11.77;;;3.20;;
9892;SDS011;4985;49.092;8.542;2023-01-05T10:58:19;7.23;;;3.03;;
9892;SDS011;4985;49.092;8.542;2023-01-05T11:00:47;6.97;;;2.60;;
9892;SDS011;4985;49.092;8.542;2023-01-05T11:03:15;8.57;;;2.40;;
9892;SDS011;4985;49.092;8.542;2023-01-05T11:05:45;10.63;;;2.87;;
9892;SDS011;4985;49.092;8.542;2023-01-05T11:08:13;6.33;;;2.07;;
9892;SDS011;4985;49.092;8.542;2023-01-05T11:10:47;9.10;;;2.57;;
9892;SDS011;4985;49.092;8.542;2023-01-05T11:13:17;8.70;;;2.37;;
9892;SDS011;4985;49.092;8.542;2023-01-05T11:15:50;6.67;;;2.73;;
9892;SDS011;4985;49.092;8.542;2023-01-05T11:18:21;8.63;;;2.37;;
9892;SDS011;4985;49.092;8.542;2023-01-05T11:21:09;11.10;;;3.03;;
9892;SDS011;4985;49.092;8.542;2023-01-05T11:23:40;8.07;;;2.67;;
9892;SDS011;4985;49.092;8.542;2023-01-05T11:26:17;10.40;;;3.03;;
9892;SDS011;4985;49.092;8.542;2023-01-05T11:28:56;8.67;;;2.73;;
9892;SDS011;4985;49.092;8.542;2023-01-05T11:31:43;9.53;;;2.83;;
9892;SDS011;4985;49.092;8.542;2023-01-05T11:34:14;7.73;;;2.10;;
9892;SDS011;4985;49.092;8.542;2023-01-05T11:36:51;7.70;;;2.23;;
9892;SDS011;4985;49.092;8.542;2023-01-05T11:39:22;10.43;;;2.93;;
9892;SDS011;4985;49.092;8.542;2023-01-05T11:42:13;5.67;;;2.20;;
9892;SDS011;4985;49.092;8.542;2023-01-05T11:44:42;7.73;;;2.40;;
9892;SDS011;4985;49.092;8.542;2023-01-05T11:47:17;8.50;;;2.73;;
9892;SDS011;4985;49.092;8.542;2023-01-05T11:49:47;6.60;;;2.10;;
9892;SDS011;4985;49.092;8.542;2023-01-05T11:52:26;10.27;;;2.53;;
9892;SDS011;4985;49.092;8.542;2023-01-05T11:54:58;12.07;;;2.70;;
9892;SDS011;4985;49.092;8.542;2023-01-05T11:57:25;7.07;;;2.67;;
9892;SDS011;4985;49.092;8.542;2023-01-05T11:59:52;8.53;;;2.60;;
9892;SDS011;4985;49.092;8.542;2023-01-05T12:02:40;7.23;;;2.50;;
9892;SDS011;4985;49.092;8.542;2023-01-05T12:05:29;7.80;;;2.80;;
9892;SDS011;4985;49.092;8.542;2023-01-05T12:08:08;6.80;;;2.37;;
9892;SDS011;4985;49.092;8.542;2023-01-05T12:10:47;9.03;;;2.80;;
9892;SDS011;4985;49.092;8.542;2023-01-05T12:13:26;10.37;;;3.00;;
9892;SDS011;4985;49.092;8.542;2023-01-05T12:16:13;7.17;;;2.37;;
9892;SDS011;4985;49.092;8.542;2023-01-05T12:18:54;8.77;;;2.80;;
9892;SDS011;4985;49.092;8.542;2023-01-05T12:21:35;7.20;;;2.50;;
9892;SDS011;4985;49.092;8.542;2023-01-05T12:24:09;7.13;;;2.10;;
9892;SDS011;4985;49.092;8.542;2023-01-05T12:26:55;8.57;;;2.77;;
9892;SDS011;4985;49.092;8.542;2023-01-05T12:29:40;13.37;;;3.10;;
9892;SDS011;4985;49.092;8.542;2023-01-05T12:32:20;9.60;;;2.63;;
9892;SDS011;4985;49.092;8.542;2023-01-05T12:35:06;8.57;;;2.47;;
9892;SDS011;4985;49.092;8.542;2023-01-05T12:37:51;8.63;;;2.50;;
9892;SDS011;4985;49.092;8.542;2023-01-05T12:40:34;10.60;;;3.07;;
9892;SDS011;4985;49.092;8.542;2023-01-05T12:43:11;6.83;;;2.47;;
9892;SDS011;4985;49.092;8.542;2023-01-05T12:45:56;10.13;;;3.07;;
9892;SDS011;4985;49.092;8.542;2023-01-05T12:48:34;9.50;;;2.67;;
9892;SDS011;4985;49.092;8.542;2023-01-05T12:51:08;8.97;;;2.47;;
9892;SDS011;4985;49.092;8.542;2023-01-05T12:53:40;5.90;;;2.27;;
9892;SDS011;4985;49.092;8.542;2023-01-05T12:56:18;6.60;;;2.20;;
9892;SDS011;4985;49.092;8.542;2023-01-05T12:58:52;7.10;;;2.73;;
9892;SDS011;4985;49.092;8.542;2023-01-05T13:01:32;10.80;;;2.30;;
9892;SDS011;4985;49.092;8.542;2023-01-05T13:04:09;11.23;;;2.53;;
9892;SDS011;4985;49.092;8.542;2023-01-05T13:06:42;6.63;;;2.60;;
9892;SDS011;4985;49.092;8.542;2023-01-05T13:09:16;8.20;;;2.50;;
9892;SDS011;4985;49.092;8.542;2023-01-05T13:11:48;6.97;;;3.00;;
9892;SDS011;4985;49.092;8.542;2023-01-05T13:14:19;9.07;;;2.40;;
9892;SDS011;4985;49.092;8.542;2023-01-05T13:16:50;13.23;;;3.13;;
9892;SDS011;4985;49.092;8.542;2023-01-05T13:19:20;7.80;;;2.37;;
9892;SDS011;4985;49.092;8.542;2023-01-05T13:21:51;7.10;;;2.67;;
9892;SDS011;4985;49.092;8.542;2023-01-05T13:24:22;8.87;;;2.80;;
9892;SDS011;4985;49.092;8.542;2023-01-05T13:26:54;10.57;;;3.17;;
9892;SDS011;4985;49.092;8.542;2023-01-05T13:29:25;3.90;;;2.03;;
9892;SDS011;4985;49.092;8.542;2023-01-05T13:31:57;9.60;;;2.23;;
9892;SDS011;4985;49.092;8.542;2023-01-05T13:34:51;7.17;;;2.40;;
9892;SDS011;4985;49.092;8.542;2023-01-05T13:37:41;9.83;;;3.53;;
9892;SDS011;4985;49.092;8.542;2023-01-05T13:40:29;7.53;;;2.40;;
9892;SDS011;4985;49.092;8.542;2023-01-05T13:43:26;6.67;;;2.53;;
9892;SDS011;4985;49.092;8.542;2023-01-05T13:46:17;6.43;;;2.10;;
9892;SDS011;4985;49.092;8.542;2023-01-05T13:48:56;8.77;;;2.80;;
9892;SDS011;4985;49.092;8.542;2023-01-05T13:51:45;10.37;;;2.37;;
9892;SDS011;4985;49.092;8.542;2023-01-05T13:54:20;8.90;;;2.23;;
9892;SDS011;4985;49.092;8.542;2023-01-05T13:56:57;7.93;;;2.67;;
9892;SDS011;4985;49.092;8.542;2023-01-05T13:59:26;7.97;;;2.20;;
9892;SDS011;4985;49.092;8.542;2023-01-05T14:01:55;9.93;;;2.70;;
9892;SDS011;4985;49.092;8.542;2023-01-05T14:04:25;10.37;;;2.50;;
9892;SDS011;4985;49.092;8.542;2023-01-05T14:06:54;9.90;;;2.30;;
9892;SDS011;4985;49.092;8.542;2023-01-05T14:09:26;10.83;;;2.53;;
9892;SDS011;4985;49.092;8.542;2023-01-05T14:15:28;7.10;;;2.70;;
9892;SDS011;4985;49.092;8.542;2023-01-05T14:17:59;11.43;;;2.40;;
9892;SDS011;4985;49.092;8.542;2023-01-05T14:20:31;9.53;;;2.50;;
9892;SDS011;4985;49.092;8.542;2023-01-05T14:26:04;7.20;;;2.20;;
9892;SDS011;4985;49.092;8.542;2023-01-05T14:28:40;9.53;;;2.60;;
9892;SDS011;4985;49.092;8.542;2023-01-05T14:34:01;6.63;;;2.57;;
9892;SDS011;4985;49.092;8.542;2023-01-05T14:36:33;8.83;;;2.67;;
9892;SDS011;4985;49.092;8.542;2023-01-05T14:39:02;8.97;;;2.47;;
9892;SDS011;4985;49.092;8.542;2023-01-05T14:41:31;12.03;;;3.10;;
9892;SDS011;4985;49.092;8.542;2023-01-05T14:43:59;7.23;;;2.47;;
9892;SDS011;4985;49.092;8.542;2023-01-05T14:46:41;10.27;;;3.50;;
9892;SDS011;4985;49.092;8.542;2023-01-05T14:49:17;5.37;;;2.20;;
9892;SDS011;4985;49.092;8.542;2023-01-05T14:51:56;8.00;;;2.17;;
9892;SDS011;4985;49.092;8.542;2023-01-05T14:54:34;6.97;;;2.23;;
9892;SDS011;4985;49.092;8.542;2023-01-05T14:57:19;14.53;;;3.30;;
9892;SDS011;4985;49.092;8.542;2023-01-05T14:59:48;9.90;;;2.53;;
9892;SDS011;4985;49.092;8.542;2023-01-05T15:02:20;9.77;;;2.63;;
9892;SDS011;4985;49.092;8.542;2023-01-05T15:04:51;11.00;;;3.03;;
9892;SDS011;4985;49.092;8.542;2023-01-05T15:07:27;9.17;;;2.70;;
9892;SDS011;4985;49.092;8.542;2023-01-05T15:13:11;10.43;;;2.70;;
9892;SDS011;4985;49.092;8.542;2023-01-05T15:16:30;9.97;;;3.27;;
9892;SDS011;4985;49.092;8.542;2023-01-05T15:19:15;6.47;;;1.90;;
9892;SDS011;4985;49.092;8.542;2023-01-05T15:21:56;9.97;;;3.10;;
9892;SDS011;4985;49.092;8.542;2023-01-05T15:27:51;6.80;;;2.23;;
9892;SDS011;4985;49.092;8.542;2023-01-05T15:30:37;9.57;;;2.70;;
9892;SDS011;4985;49.092;8.542;2023-01-05T15:33:17;6.00;;;1.77;;
9892;SDS011;4985;49.092;8.542;2023-01-05T15:35:54;6.77;;;2.43;;
9892;SDS011;4985;49.092;8.542;2023-01-05T15:38:26;5.43;;;2.57;;
9892;SDS011;4985;49.092;8.542;2023-01-05T15:40:57;9.03;;;3.03;;
9892;SDS011;4985;49.092;8.542;2023-01-05T15:43:26;8.30;;;2.50;;
9892;SDS011;4985;49.092;8.542;2023-01-05T15:45:53;7.97;;;2.30;;
9892;SDS011;4985;49.092;8.542;2023-01-05T15:48:22;8.13;;;2.20;;
9892;SDS011;4985;49.092;8.542;2023-01-05T15:50:54;8.83;;;2.53;;
9892;SDS011;4985;49.092;8.542;2023-01-05T15:53:23;13.73;;;2.97;;
9892;SDS011;4985;49.092;8.542;2023-01-05T15:55:52;10.67;;;3.30;;
9892;SDS011;4985;49.092;8.542;2023-01-05T15:58:20;6.27;;;2.57;;
9892;SDS011;4985;49.092;8.542;2023-01-05T16:01:01;10.10;;;2.63;;
9892;SDS011;4985;49.092;8.542;2023-01-05T16:03:30;10.53;;;2.67;;